Time;durP1;ratioP1;P1;durP2;ratioP2;P2;SDS_P1;SDS_P2;PMS_P1;PMS_P2;Temp;Humidity;BMP_temperature;BMP_pressure;BME280_temperature;BME280_humidity;BME280_pressure;Samples;Min_cycle;Max_cycle;Signal;HPM_P1;HPM_P2
2022/05/08 00:01:51;;;;;;;18.75;3.78;;;10.90;99.90;;;;;;5042061;28;20033;-65
2022/05/08 00:04:17;;;;;;;18.00;4.05;;;10.90;99.90;;;;;;5034687;28;20049;-64
2022/05/08 00:06:42;;;;;;;20.35;3.97;;;10.90;99.90;;;;;;5034182;28;20083;-64
2022/05/08 00:09:08;;;;;;;17.75;3.97;;;10.90;99.90;;;;;;5037363;28;20065;-65
2022/05/08 00:11:33;;;;;;;15.13;3.20;;;10.90;99.90;;;;;;5040117;28;20055;-64
2022/05/08 00:13:59;;;;;;;16.27;4.03;;;10.90;99.90;;;;;;5041350;28;20135;-65
2022/05/08 00:16:25;;;;;;;15.55;3.90;;;10.80;99.90;;;;;;5036087;28;20056;-65
2022/05/08 00:18:50;;;;;;;18.05;4.57;;;10.60;99.90;;;;;;5042173;28;20053;-64
2022/05/08 00:21:16;;;;;;;17.13;4.07;;;10.60;99.90;;;;;;5033882;28;20045;-64
2022/05/08 00:23:41;;;;;;;15.20;4.30;;;10.50;99.90;;;;;;5036147;28;20125;-66
2022/05/08 00:26:08;;;;;;;19.20;4.32;;;10.60;99.90;;;;;;5044675;28;20044;-65
2022/05/08 00:28:38;;;;;;;21.75;3.95;;;10.40;99.90;;;;;;5043955;28;20475;-65
2022/05/08 00:31:07;;;;;;;18.08;4.00;;;10.50;99.90;;;;;;5031845;28;20152;-64
2022/05/08 00:33:33;;;;;;;14.57;4.03;;;10.40;99.90;;;;;;5039114;28;20537;-65
2022/05/08 00:35:58;;;;;;;21.50;4.57;;;10.30;99.90;;;;;;5043591;28;20056;-64
2022/05/08 00:38:24;;;;;;;18.02;4.30;;;10.30;99.90;;;;;;5045541;28;20056;-65
2022/05/08 00:40:49;;;;;;;15.68;3.70;;;10.30;99.90;;;;;;5044844;28;20048;-65
2022/05/08 00:43:32;;;;;;;12.70;3.67;;;10.40;99.90;;;;;;5040384;28;20049;-65
2022/05/08 00:46:09;;;;;;;15.20;4.43;;;10.40;99.90;;;;;;5046464;28;20055;-65
2022/05/08 00:48:36;;;;;;;15.43;3.92;;;10.30;99.90;;;;;;5037656;28;20087;-65
2022/05/08 00:51:04;;;;;;;18.90;3.75;;;10.20;99.90;;;;;;5039160;28;20068;-66
2022/05/08 00:53:38;;;;;;;14.40;4.20;;;10.20;99.90;;;;;;5040504;28;20048;-65
2022/05/08 00:56:10;;;;;;;14.55;3.60;;;10.20;99.90;;;;;;5035582;28;20149;-65
2022/05/08 00:58:38;;;;;;;15.18;3.13;;;10.10;99.90;;;;;;5036443;28;20041;-65
2022/05/08 01:01:04;;;;;;;16.83;3.70;;;10.10;99.90;;;;;;5037349;28;20080;-64
2022/05/08 01:03:30;;;;;;;18.10;3.33;;;10.10;99.90;;;;;;5045235;28;20040;-65
2022/05/08 01:05:57;;;;;;;16.98;4.03;;;10.10;99.90;;;;;;5038666;28;20052;-65
2022/05/08 01:08:24;;;;;;;15.65;3.78;;;10.10;99.90;;;;;;5039117;28;20216;-64
2022/05/08 01:10:51;;;;;;;17.58;3.72;;;10.00;99.90;;;;;;5039644;28;20150;-67
2022/05/08 01:13:17;;;;;;;16.83;3.80;;;9.90;99.90;;;;;;5040842;28;20033;-65
2022/05/08 01:15:47;;;;;;;14.68;3.72;;;9.90;99.90;;;;;;5043470;28;20056;-65
2022/05/08 01:18:15;;;;;;;19.42;3.65;;;9.80;99.90;;;;;;5039836;28;20119;-64
2022/05/08 01:20:42;;;;;;;15.95;4.10;;;9.90;99.90;;;;;;5043586;28;20045;-64
2022/05/08 01:23:09;;;;;;;16.42;3.97;;;9.80;99.90;;;;;;5044504;28;20044;-64
2022/05/08 01:25:43;;;;;;;15.27;4.10;;;9.80;99.90;;;;;;5036313;28;20052;-65
2022/05/08 01:28:09;;;;;;;15.43;3.92;;;9.80;99.90;;;;;;5032028;28;20125;-64
2022/05/08 01:30:35;;;;;;;15.32;3.28;;;9.80;99.90;;;;;;5046266;28;20041;-66
2022/05/08 01:33:00;;;;;;;16.42;3.80;;;9.70;99.90;;;;;;5039582;28;20045;-64
2022/05/08 01:35:30;;;;;;;12.40;3.20;;;9.70;99.90;;;;;;5043627;28;20048;-66
2022/05/08 01:37:55;;;;;;;17.10;3.55;;;9.70;99.90;;;;;;5043509;28;20052;-64
2022/05/08 01:40:21;;;;;;;13.02;3.50;;;9.70;99.90;;;;;;5038138;28;20041;-64
2022/05/08 01:42:47;;;;;;;17.98;4.07;;;9.70;99.90;;;;;;5042239;28;20048;-65
2022/05/08 01:45:13;;;;;;;15.43;4.00;;;9.60;99.90;;;;;;5042854;28;20128;-64
2022/05/08 01:50:23;;;;;;;15.00;3.33;;;9.40;99.90;;;;;;5043546;28;20470;-65
2022/05/08 01:52:49;;;;;;;14.73;3.70;;;9.40;99.90;;;;;;5036286;28;20141;-66
2022/05/08 01:55:15;;;;;;;16.63;4.15;;;9.30;99.90;;;;;;5034385;28;20047;-65
2022/05/08 01:57:40;;;;;;;16.33;4.13;;;9.30;99.90;;;;;;5039083;28;20040;-64
2022/05/08 02:00:06;;;;;;;13.75;3.65;;;9.30;99.90;;;;;;5038598;28;20479;-65
2022/05/08 02:02:32;;;;;;;16.30;3.75;;;9.30;99.90;;;;;;5040612;28;20051;-64
2022/05/08 02:04:58;;;;;;;15.25;3.47;;;9.20;99.90;;;;;;5039637;28;20508;-66
2022/05/08 02:07:24;;;;;;;15.73;3.78;;;9.20;99.90;;;;;;5041686;28;20073;-64
2022/05/08 02:09:49;;;;;;;15.90;3.45;;;9.30;99.90;;;;;;5041015;28;20372;-65
2022/05/08 02:12:15;;;;;;;18.77;4.13;;;9.10;99.90;;;;;;5034493;28;20130;-65
2022/05/08 02:14:44;;;;;;;16.20;3.85;;;9.20;99.90;;;;;;5045476;28;20234;-65
2022/05/08 02:17:10;;;;;;;15.07;3.70;;;9.10;99.90;;;;;;5034769;28;20037;-64
2022/05/08 02:19:36;;;;;;;17.73;4.13;;;9.10;99.90;;;;;;5043278;28;21366;-66
2022/05/08 02:22:01;;;;;;;19.65;4.47;;;9.00;99.90;;;;;;5041817;28;20065;-67
2022/05/08 02:24:27;;;;;;;23.95;4.43;;;9.00;99.90;;;;;;5040274;28;20033;-65
2022/05/08 02:26:52;;;;;;;17.65;4.28;;;8.90;99.90;;;;;;5043888;28;20037;-64
2022/05/08 02:29:18;;;;;;;17.17;3.72;;;8.90;99.90;;;;;;5034403;28;20045;-64
2022/05/08 02:31:44;;;;;;;14.02;3.85;;;8.90;99.90;;;;;;5034869;28;20471;-65
2022/05/08 02:34:09;;;;;;;13.60;3.90;;;8.90;99.90;;;;;;5038475;28;20534;-66
2022/05/08 02:36:35;;;;;;;14.32;3.97;;;8.90;99.90;;;;;;5035949;28;20056;-64
2022/05/08 02:39:01;;;;;;;18.35;4.07;;;8.90;99.90;;;;;;5042140;28;20048;-65
2022/05/08 02:41:26;;;;;;;14.63;4.28;;;8.90;99.90;;;;;;5035139;28;20523;-64
2022/05/08 02:43:52;;;;;;;14.20;4.70;;;8.90;99.90;;;;;;5041090;28;20045;-65
2022/05/08 02:46:17;;;;;;;15.40;3.80;;;8.80;99.90;;;;;;5036461;28;20105;-64
2022/05/08 02:48:43;;;;;;;19.75;5.10;;;8.80;99.90;;;;;;5040468;28;20037;-64
2022/05/08 02:51:09;;;;;;;16.38;4.22;;;8.80;99.90;;;;;;5038655;28;20061;-64
2022/05/08 02:53:34;;;;;;;16.83;4.53;;;8.70;99.90;;;;;;5040678;28;20063;-64
2022/05/08 02:58:44;;;;;;;17.38;4.03;;;8.70;99.90;;;;;;5037586;28;20045;-64
2022/05/08 03:01:10;;;;;;;18.85;4.20;;;8.70;99.90;;;;;;5036176;28;20033;-65
2022/05/08 03:03:36;;;;;;;13.82;4.28;;;8.60;99.90;;;;;;5036054;28;20068;-65
2022/05/08 03:06:02;;;;;;;14.70;3.80;;;8.60;99.90;;;;;;5039831;28;20044;-67
2022/05/08 03:08:27;;;;;;;15.95;3.97;;;8.60;99.90;;;;;;5040332;28;20040;-63
2022/05/08 03:13:39;;;;;;;14.05;4.00;;;8.60;99.90;;;;;;5038489;28;20351;-64
2022/05/08 03:16:07;;;;;;;16.05;4.53;;;8.50;99.90;;;;;;5038668;28;20146;-64
2022/05/08 03:18:34;;;;;;;13.80;3.92;;;8.50;99.90;;;;;;5037230;28;20048;-63
2022/05/08 03:21:00;;;;;;;11.45;4.32;;;8.50;99.90;;;;;;5034944;28;20194;-64
2022/05/08 03:23:27;;;;;;;17.42;5.15;;;8.40;99.90;;;;;;5031003;28;20086;-64
2022/05/08 03:25:53;;;;;;;13.52;4.93;;;8.40;99.90;;;;;;5040043;28;20065;-66
2022/05/08 03:28:18;;;;;;;13.85;5.80;;;8.40;99.90;;;;;;5038931;28;20068;-64
2022/05/08 03:30:45;;;;;;;15.73;5.00;;;8.40;99.90;;;;;;5043858;28;20048;-63
2022/05/08 03:33:10;;;;;;;13.57;4.75;;;8.30;99.90;;;;;;5034205;28;20033;-63
2022/05/08 03:35:40;;;;;;;19.02;5.00;;;8.30;99.90;;;;;;5043151;28;20442;-65
2022/05/08 03:38:07;;;;;;;18.40;4.70;;;8.20;99.90;;;;;;5029880;28;20037;-63
2022/05/08 03:40:33;;;;;;;15.88;4.57;;;8.10;99.90;;;;;;5031539;28;20049;-64
2022/05/08 03:42:59;;;;;;;20.77;5.00;;;8.20;99.90;;;;;;5043763;28;20077;-63
2022/05/08 03:45:25;;;;;;;14.40;4.75;;;8.20;99.90;;;;;;5032110;28;20069;-64
2022/05/08 03:47:52;;;;;;;14.80;4.43;;;8.10;99.90;;;;;;5034627;28;20045;-63
2022/05/08 03:50:19;;;;;;;17.52;4.72;;;8.10;99.90;;;;;;5039592;28;20073;-64
2022/05/08 03:52:44;;;;;;;11.00;3.53;;;8.10;99.90;;;;;;5040780;28;20422;-65
2022/05/08 03:55:15;;;;;;;15.23;4.68;;;8.10;99.90;;;;;;5037573;28;20098;-63
2022/05/08 03:57:44;;;;;;;16.05;5.25;;;8.10;99.90;;;;;;5033411;28;20214;-63
2022/05/08 04:00:11;;;;;;;17.23;4.18;;;8.10;99.90;;;;;;5034199;28;20139;-63
2022/05/08 04:02:37;;;;;;;16.85;4.07;;;8.10;99.90;;;;;;5038829;28;20475;-63
2022/05/08 04:05:04;;;;;;;18.92;5.00;;;8.10;99.90;;;;;;5040535;28;20056;-66
2022/05/08 04:07:30;;;;;;;10.95;3.65;;;8.10;99.90;;;;;;5032778;28;20048;-64
2022/05/08 04:09:56;;;;;;;14.55;4.18;;;8.10;99.90;;;;;;5038136;28;20755;-63
2022/05/08 04:12:22;;;;;;;14.48;4.35;;;8.10;99.90;;;;;;5041242;28;20051;-63
2022/05/08 04:14:48;;;;;;;13.30;3.55;;;8.00;99.90;;;;;;5041697;28;20041;-64
2022/05/08 04:17:13;;;;;;;11.90;4.30;;;8.00;99.90;;;;;;5040774;28;20036;-63
2022/05/08 04:19:39;;;;;;;15.73;4.55;;;8.10;99.90;;;;;;5038002;28;20049;-63
2022/05/08 04:24:49;;;;;;;12.67;3.73;;;8.10;99.90;;;;;;5042243;28;20050;-63
2022/05/08 04:27:15;;;;;;;10.85;3.80;;;8.10;99.90;;;;;;5040633;28;20369;-64
2022/05/08 04:29:40;;;;;;;11.73;4.00;;;8.10;99.90;;;;;;5041608;28;20045;-65
2022/05/08 04:32:06;;;;;;;15.02;4.07;;;8.20;99.90;;;;;;5041603;28;20049;-64
2022/05/08 04:34:32;;;;;;;14.82;4.70;;;8.20;99.90;;;;;;5039416;28;20061;-62
2022/05/08 04:36:57;;;;;;;10.60;3.75;;;8.20;99.90;;;;;;5040121;28;20056;-63
2022/05/08 04:39:23;;;;;;;11.82;4.15;;;8.20;99.90;;;;;;5037487;28;20052;-63
2022/05/08 04:41:49;;;;;;;12.63;4.70;;;8.30;99.90;;;;;;5038410;28;20183;-64
2022/05/08 04:44:14;;;;;;;14.05;4.07;;;8.30;99.90;;;;;;5040944;28;20907;-64
2022/05/08 04:46:40;;;;;;;15.93;4.38;;;8.30;99.90;;;;;;5037496;28;20053;-63
2022/05/08 04:49:05;;;;;;;17.45;5.03;;;8.30;99.90;;;;;;5041325;28;20383;-64
2022/05/08 04:51:31;;;;;;;13.77;4.10;;;8.40;99.90;;;;;;5037969;28;20655;-66
2022/05/08 04:53:57;;;;;;;13.95;4.13;;;8.40;99.90;;;;;;5039461;28;20061;-66
2022/05/08 04:56:22;;;;;;;15.77;4.43;;;8.40;99.90;;;;;;5038916;28;20072;-63
2022/05/08 04:58:48;;;;;;;14.70;4.47;;;8.30;99.90;;;;;;5042164;28;20108;-64
2022/05/08 05:01:14;;;;;;;14.95;4.45;;;8.40;99.90;;;;;;5043957;28;20095;-63
2022/05/08 05:03:41;;;;;;;12.10;4.13;;;8.50;99.90;;;;;;5041457;28;20167;-64
2022/05/08 05:06:07;;;;;;;14.85;4.07;;;8.60;99.90;;;;;;5037219;28;20120;-64
2022/05/08 05:08:32;;;;;;;15.07;4.03;;;8.70;99.90;;;;;;5036692;28;20037;-65
2022/05/08 05:10:58;;;;;;;13.40;4.15;;;8.90;99.90;;;;;;5032617;28;20045;-64
2022/05/08 05:13:24;;;;;;;13.55;4.40;;;9.00;99.90;;;;;;5042328;28;20049;-65
2022/05/08 05:15:49;;;;;;;12.27;3.63;;;9.10;99.90;;;;;;5038487;28;20645;-64
2022/05/08 05:18:15;;;;;;;13.32;4.57;;;9.10;99.90;;;;;;5038672;28;20041;-64
2022/05/08 05:20:41;;;;;;;14.27;4.05;;;9.10;99.90;;;;;;5036718;28;20049;-64
2022/05/08 05:23:07;;;;;;;14.57;4.20;;;9.10;99.90;;;;;;5040505;28;20467;-64
2022/05/08 05:25:33;;;;;;;13.95;4.25;;;9.20;99.90;;;;;;5035999;28;20045;-64
2022/05/08 05:27:58;;;;;;;18.92;4.72;;;9.20;99.90;;;;;;5038529;28;20406;-64
2022/05/08 05:30:24;;;;;;;14.27;3.97;;;9.20;99.90;;;;;;5037283;28;20056;-65
2022/05/08 05:32:50;;;;;;;12.02;4.05;;;9.20;99.90;;;;;;5036119;28;20493;-64
2022/05/08 05:35:15;;;;;;;11.65;3.90;;;9.30;99.90;;;;;;5045716;28;20495;-64
2022/05/08 05:37:41;;;;;;;14.95;4.20;;;9.30;99.90;;;;;;5038354;28;20045;-64
2022/05/08 05:40:07;;;;;;;13.95;4.07;;;9.30;99.90;;;;;;5040561;28;20041;-64
2022/05/08 05:42:33;;;;;;;13.20;4.15;;;9.40;99.90;;;;;;5045089;28;20039;-65
2022/05/08 05:44:58;;;;;;;14.55;4.05;;;9.60;99.90;;;;;;5043127;28;20113;-63
2022/05/08 05:50:09;;;;;;;13.23;3.85;;;9.80;99.90;;;;;;5038337;28;20067;-64
2022/05/08 05:52:35;;;;;;;15.15;4.20;;;9.80;99.90;;;;;;5041978;28;20045;-63
2022/05/08 05:55:04;;;;;;;12.30;3.97;;;9.90;99.90;;;;;;5037346;28;20037;-63
2022/05/08 05:57:33;;;;;;;12.73;3.78;;;10.10;99.90;;;;;;5034091;28;20156;-63
2022/05/08 05:59:59;;;;;;;17.52;4.22;;;10.20;99.90;;;;;;5038683;28;20128;-62
2022/05/08 06:02:25;;;;;;;18.58;4.15;;;10.30;99.90;;;;;;5037500;28;20155;-63
2022/05/08 06:04:50;;;;;;;11.52;3.30;;;10.40;99.90;;;;;;5037214;28;20060;-63
2022/05/08 06:07:16;;;;;;;12.43;3.70;;;10.50;99.90;;;;;;5036676;28;20128;-65
2022/05/08 06:09:41;;;;;;;12.18;3.35;;;10.60;99.90;;;;;;5037105;28;20173;-64
2022/05/08 06:12:07;;;;;;;11.80;3.33;;;10.80;99.90;;;;;;5044228;28;20032;-63
2022/05/08 06:14:33;;;;;;;15.38;3.60;;;10.90;99.90;;;;;;5039395;28;20064;-64
2022/05/08 06:16:59;;;;;;;12.57;2.92;;;11.10;99.90;;;;;;5043416;28;20053;-63
2022/05/08 06:19:24;;;;;;;9.25;2.72;;;11.10;99.90;;;;;;5036900;28;20143;-63
2022/05/08 06:21:50;;;;;;;11.80;3.90;;;11.10;99.90;;;;;;5040827;28;20053;-64
2022/05/08 06:24:15;;;;;;;9.05;2.80;;;11.10;99.90;;;;;;5047497;28;20040;-63
2022/05/08 06:26:41;;;;;;;9.43;2.72;;;11.10;99.90;;;;;;5038005;28;20045;-64
2022/05/08 06:29:06;;;;;;;10.43;3.22;;;11.20;99.90;;;;;;5032602;28;20049;-64
2022/05/08 06:31:32;;;;;;;8.38;2.75;;;11.40;99.90;;;;;;5039861;28;20064;-65
2022/05/08 06:33:58;;;;;;;10.98;3.08;;;11.40;99.90;;;;;;5036966;28;20034;-64
2022/05/08 06:36:25;;;;;;;15.65;3.50;;;11.50;99.90;;;;;;5034576;28;20223;-66
2022/05/08 06:38:51;;;;;;;8.23;2.58;;;11.50;99.90;;;;;;5034560;28;20039;-64
2022/05/08 06:41:17;;;;;;;12.27;3.28;;;11.60;99.90;;;;;;5038335;28;20041;-64
2022/05/08 06:43:44;;;;;;;12.38;2.92;;;11.60;99.90;;;;;;5039422;28;20045;-65
2022/05/08 06:46:10;;;;;;;9.07;2.90;;;11.70;99.90;;;;;;5035290;28;20702;-65
2022/05/08 06:48:36;;;;;;;8.32;2.65;;;11.80;99.90;;;;;;5033589;28;20136;-64
2022/05/08 06:51:03;;;;;;;8.32;2.10;;;11.70;99.90;;;;;;5029186;28;20254;-64
2022/05/08 06:53:28;;;;;;;9.43;2.67;;;11.80;99.90;;;;;;5037327;28;20047;-63
2022/05/08 06:55:54;;;;;;;10.20;2.35;;;11.80;99.90;;;;;;5039093;28;20049;-63
2022/05/08 06:58:24;;;;;;;12.55;2.75;;;11.80;99.90;;;;;;5043008;28;20041;-64
2022/05/08 07:03:36;;;;;;;10.10;2.67;;;12.00;99.90;;;;;;5038335;28;20057;-63
2022/05/08 07:06:01;;;;;;;9.23;2.42;;;12.10;99.90;;;;;;5036055;28;20104;-66
2022/05/08 07:08:27;;;;;;;10.15;2.50;;;12.10;99.90;;;;;;5035849;28;20116;-63
2022/05/08 07:10:53;;;;;;;8.57;2.42;;;12.30;99.90;;;;;;5032862;28;20043;-65
2022/05/08 07:13:22;;;;;;;9.90;2.30;;;12.40;99.90;;;;;;5041099;28;20041;-65
2022/05/08 07:15:48;;;;;;;12.18;2.08;;;12.60;99.90;;;;;;5045103;28;20045;-64
2022/05/08 07:18:13;;;;;;;9.68;2.95;;;12.60;99.90;;;;;;5038111;28;20049;-66
2022/05/08 07:20:39;;;;;;;6.90;2.25;;;12.70;99.90;;;;;;5038575;28;20049;-64
2022/05/08 07:23:04;;;;;;;9.32;2.20;;;12.60;99.90;;;;;;5039382;28;20040;-63
2022/05/08 07:25:30;;;;;;;9.52;2.40;;;12.50;99.90;;;;;;5041563;28;20129;-64
2022/05/08 07:27:56;;;;;;;9.23;2.42;;;12.50;99.90;;;;;;5032112;28;20069;-64
2022/05/08 07:30:21;;;;;;;11.13;2.38;;;12.50;99.90;;;;;;5037188;28;20055;-63
2022/05/08 07:32:48;;;;;;;7.97;2.20;;;12.70;99.90;;;;;;5029939;28;20124;-63
2022/05/08 07:37:59;;;;;;;7.13;1.83;;;12.70;99.90;;;;;;5034413;28;20079;-62
2022/05/08 07:40:26;;;;;;;9.25;1.70;;;12.80;99.90;;;;;;5032031;28;20049;-61
2022/05/08 07:42:52;;;;;;;11.88;2.10;;;12.90;99.70;;;;;;5032742;28;20044;-62
2022/05/08 07:45:17;;;;;;;8.38;2.28;;;12.90;99.20;;;;;;5035240;28;20115;-63
2022/05/08 07:47:43;;;;;;;7.13;1.80;;;12.70;99.30;;;;;;5033428;28;20248;-62
2022/05/08 07:50:09;;;;;;;7.25;1.70;;;12.70;99.00;;;;;;5044417;28;20471;-63
2022/05/08 07:52:39;;;;;;;8.13;1.83;;;12.70;99.60;;;;;;5036610;28;20147;-62
2022/05/08 07:55:06;;;;;;;9.95;1.98;;;12.60;99.40;;;;;;5042882;28;20049;-63
2022/05/08 07:57:31;;;;;;;5.95;1.55;;;12.40;98.90;;;;;;5033177;28;20033;-63
2022/05/08 07:59:57;;;;;;;9.15;1.90;;;12.30;99.40;;;;;;5030490;28;20509;-62
2022/05/08 08:02:22;;;;;;;5.20;2.00;;;12.20;99.90;;;;;;5040806;28;20096;-61
2022/05/08 08:04:48;;;;;;;8.55;1.85;;;12.30;99.90;;;;;;5043878;28;20164;-64
2022/05/08 08:07:13;;;;;;;6.45;2.00;;;12.60;99.90;;;;;;5036530;28;20120;-63
2022/05/08 08:09:39;;;;;;;9.48;1.80;;;12.90;99.40;;;;;;5033957;28;20045;-62
2022/05/08 08:12:04;;;;;;;8.68;1.80;;;13.10;98.80;;;;;;5036592;28;20064;-62
2022/05/08 08:14:32;;;;;;;9.35;1.70;;;13.20;97.70;;;;;;5039951;28;20043;-63
2022/05/08 08:16:58;;;;;;;7.88;1.70;;;13.40;97.30;;;;;;5036989;28;20052;-63
2022/05/08 08:19:23;;;;;;;6.78;1.73;;;13.50;96.50;;;;;;5033820;28;20456;-63
2022/05/08 08:21:49;;;;;;;6.32;1.80;;;13.80;96.20;;;;;;5030751;28;20484;-62
2022/05/08 08:24:15;;;;;;;5.75;1.60;;;14.00;95.80;;;;;;5032082;28;20494;-61
2022/05/08 08:26:41;;;;;;;6.40;1.58;;;14.00;93.90;;;;;;5035096;28;20076;-63
2022/05/08 08:29:07;;;;;;;8.18;1.60;;;14.10;94.20;;;;;;5034605;28;20048;-62
2022/05/08 08:31:33;;;;;;;8.70;1.70;;;14.10;92.90;;;;;;5034084;28;20029;-62
2022/05/08 08:33:59;;;;;;;6.22;1.65;;;14.20;92.90;;;;;;5041976;28;20033;-62
2022/05/08 08:36:25;;;;;;;8.15;1.73;;;14.20;90.80;;;;;;5033251;28;20451;-63
2022/05/08 08:38:50;;;;;;;9.60;2.13;;;14.20;91.70;;;;;;5036837;28;20423;-63
2022/05/08 08:41:21;;;;;;;6.38;1.70;;;14.20;91.40;;;;;;5035335;28;20041;-63
2022/05/08 08:49:22;;;;;;;7.97;1.77;;;14.00;92.10;;;;;;5035377;28;20133;-63
2022/05/08 08:51:49;;;;;;;7.25;1.60;;;13.90;92.70;;;;;;5036718;28;20140;-64
2022/05/08 08:54:17;;;;;;;8.43;2.03;;;13.90;91.00;;;;;;5039458;28;21672;-64
2022/05/08 08:56:42;;;;;;;7.07;2.00;;;14.00;90.90;;;;;;5036855;28;20133;-64
2022/05/08 08:59:09;;;;;;;6.60;1.50;;;14.00;91.40;;;;;;5039173;28;20140;-63
2022/05/08 09:01:42;;;;;;;9.15;1.90;;;14.10;91.60;;;;;;5036807;28;20048;-64
2022/05/08 09:04:09;;;;;;;6.60;1.42;;;14.20;90.70;;;;;;5038947;28;20045;-65
2022/05/08 09:06:43;;;;;;;8.65;1.98;;;14.20;88.50;;;;;;5038613;28;20123;-65
2022/05/08 09:09:26;;;;;;;6.47;1.65;;;14.20;88.50;;;;;;5038083;28;20043;-65
2022/05/08 09:11:55;;;;;;;6.47;1.50;;;14.40;89.40;;;;;;5037710;28;20072;-63
2022/05/08 09:14:32;;;;;;;7.50;2.10;;;14.50;89.10;;;;;;5035680;28;20068;-63
2022/05/08 09:16:59;;;;;;;8.20;1.90;;;14.60;87.20;;;;;;5037717;28;20045;-63
2022/05/08 09:19:34;;;;;;;8.95;1.75;;;14.60;86.70;;;;;;5042662;28;20045;-65
2022/05/08 09:22:00;;;;;;;4.95;1.60;;;14.60;86.20;;;;;;5034115;28;20080;-64
2022/05/08 09:24:26;;;;;;;7.15;1.70;;;14.70;86.20;;;;;;5038682;28;20041;-64
2022/05/08 09:27:12;;;;;;;7.53;2.15;;;14.80;83.20;;;;;;5039811;28;20044;-65
2022/05/08 09:29:38;;;;;;;6.05;1.70;;;14.90;84.90;;;;;;5036764;28;20052;-65
2022/05/08 09:32:04;;;;;;;8.73;1.75;;;14.80;80.90;;;;;;5037561;28;20045;-63
2022/05/08 09:34:29;;;;;;;6.20;1.90;;;14.90;82.00;;;;;;5037174;28;20040;-64
2022/05/08 09:37:09;;;;;;;8.70;2.20;;;14.90;82.50;;;;;;5036135;28;20043;-65
2022/05/08 09:39:34;;;;;;;7.72;1.85;;;14.90;80.20;;;;;;5053966;28;20049;-64
2022/05/08 09:42:00;;;;;;;6.50;1.73;;;14.90;81.60;;;;;;5036575;28;20444;-65
2022/05/08 09:44:25;;;;;;;5.93;1.55;;;15.00;83.20;;;;;;5035566;28;20045;-65
2022/05/08 09:46:51;;;;;;;5.93;1.73;;;15.00;80.50;;;;;;5035091;28;20037;-64
2022/05/08 09:49:22;;;;;;;6.05;1.92;;;15.10;78.70;;;;;;5033253;28;20111;-63
2022/05/08 09:51:48;;;;;;;6.85;1.75;;;15.10;76.50;;;;;;5035357;28;20045;-63
2022/05/08 09:54:16;;;;;;;7.32;2.00;;;15.10;77.80;;;;;;5036761;28;20108;-66
2022/05/08 09:56:44;;;;;;;5.93;1.65;;;15.20;76.50;;;;;;5038177;28;20542;-63
2022/05/08 09:59:10;;;;;;;5.43;1.50;;;15.20;76.80;;;;;;5034664;28;20152;-62
2022/05/08 10:01:40;;;;;;;8.00;2.05;;;15.30;76.90;;;;;;5036708;28;20057;-63
2022/05/08 10:04:06;;;;;;;5.53;1.60;;;15.40;75.50;;;;;;5034118;28;20387;-62
2022/05/08 10:06:39;;;;;;;5.57;1.60;;;15.40;76.30;;;;;;5043238;28;20045;-62
2022/05/08 10:14:34;;;;;;;8.07;2.00;;;15.80;75.40;;;;;;5036528;28;20475;-64
2022/05/08 10:17:00;;;;;;;8.82;2.00;;;15.70;75.20;;;;;;5043336;28;20055;-63
2022/05/08 10:19:25;;;;;;;6.30;1.60;;;15.70;74.00;;;;;;5040000;28;20044;-63
2022/05/08 10:22:00;;;;;;;7.20;1.83;;;15.70;74.00;;;;;;5047605;28;20101;-62
2022/05/08 10:24:33;;;;;;;6.75;1.70;;;15.70;71.20;;;;;;5048415;28;20526;-63
2022/05/08 10:27:21;;;;;;;8.57;1.90;;;15.80;74.00;;;;;;5047061;28;20143;-63
2022/05/08 10:29:49;;;;;;;7.32;1.60;;;15.90;72.70;;;;;;5042054;28;20051;-63
2022/05/08 10:32:35;;;;;;;9.98;2.42;;;15.90;72.70;;;;;;5041140;28;20254;-63
2022/05/08 10:35:03;;;;;;;6.25;1.70;;;15.90;71.40;;;;;;5024309;28;20049;-64
2022/05/08 10:37:30;;;;;;;7.25;2.15;;;15.90;71.80;;;;;;5035280;28;20052;-63
2022/05/08 10:39:56;;;;;;;8.63;2.15;;;16.00;72.00;;;;;;5035272;28;20502;-63
2022/05/08 10:42:28;;;;;;;9.15;2.03;;;16.00;72.70;;;;;;5042518;28;20049;-62
2022/05/08 10:44:57;;;;;;;11.40;2.30;;;16.10;72.80;;;;;;5047602;28;20118;-62
2022/05/08 10:47:40;;;;;;;6.78;1.83;;;16.10;71.60;;;;;;5048015;28;20450;-63
2022/05/08 10:50:10;;;;;;;8.85;2.25;;;16.30;70.20;;;;;;5044527;28;20057;-63
2022/05/08 10:52:40;;;;;;;7.85;1.95;;;16.30;70.40;;;;;;5043799;28;20439;-62
2022/05/08 10:55:08;;;;;;;6.05;1.73;;;16.30;69.00;;;;;;5047859;28;20052;-62
2022/05/08 10:57:37;;;;;;;5.95;1.90;;;16.30;69.10;;;;;;5039505;28;20034;-62
2022/05/08 11:00:06;;;;;;;9.23;2.15;;;16.40;69.10;;;;;;5039843;28;20045;-63
2022/05/08 11:02:41;;;;;;;8.80;1.60;;;16.50;68.80;;;;;;5038579;28;20064;-63
2022/05/08 11:05:12;;;;;;;9.82;1.95;;;16.60;68.30;;;;;;5047154;28;20057;-62
2022/05/08 11:07:39;;;;;;;7.50;1.92;;;16.70;68.40;;;;;;5045828;28;20120;-63
2022/05/08 11:10:43;;;;;;;10.07;2.28;;;16.80;68.60;;;;;;5045947;28;20497;-63
2022/05/08 11:13:13;;;;;;;7.15;2.00;;;16.80;66.30;;;;;;5041961;28;20075;-63
2022/05/08 11:15:42;;;;;;;6.88;2.10;;;16.70;65.80;;;;;;5028768;28;20041;-62
2022/05/08 11:18:17;;;;;;;8.05;1.73;;;16.80;65.20;;;;;;5038471;28;20063;-62
2022/05/08 11:20:49;;;;;;;6.88;1.70;;;16.80;65.30;;;;;;5030163;28;20044;-63
2022/05/08 11:23:23;;;;;;;8.38;1.85;;;16.70;63.20;;;;;;5027848;28;20124;-63
2022/05/08 11:25:52;;;;;;;6.53;1.63;;;16.90;63.60;;;;;;5041950;28;20359;-61
2022/05/08 11:28:20;;;;;;;11.77;2.50;;;17.00;64.10;;;;;;5044946;28;20246;-62
2022/05/08 11:30:46;;;;;;;6.43;1.80;;;17.10;64.70;;;;;;5045150;28;20053;-62
2022/05/08 11:36:05;;;;;;;7.35;2.00;;;17.00;61.30;;;;;;5037473;28;20169;-62
2022/05/08 11:38:45;;;;;;;8.77;1.55;;;16.90;60.40;;;;;;5033809;28;20064;-63
2022/05/08 11:41:22;;;;;;;6.35;1.80;;;17.10;60.40;;;;;;5039754;28;20629;-64
2022/05/08 11:43:52;;;;;;;6.38;1.60;;;17.20;61.90;;;;;;5038229;28;20123;-64
2022/05/08 11:46:22;;;;;;;9.02;2.00;;;17.30;60.00;;;;;;5046363;28;20052;-63
2022/05/08 11:48:49;;;;;;;6.15;1.70;;;17.30;58.50;;;;;;5038952;28;20126;-64
2022/05/08 11:51:21;;;;;;;6.38;1.90;;;17.20;58.00;;;;;;5036441;28;20101;-65
2022/05/08 11:53:51;;;;;;;7.07;1.75;;;17.40;58.50;;;;;;5037047;28;20053;-62
2022/05/08 11:56:24;;;;;;;6.30;1.70;;;17.40;60.00;;;;;;5042074;28;20106;-63
2022/05/08 11:58:51;;;;;;;6.32;1.90;;;17.40;59.50;;;;;;5044279;28;20313;-62
2022/05/08 12:01:24;;;;;;;6.45;1.80;;;17.40;60.30;;;;;;5033441;28;20098;-62
2022/05/08 12:03:50;;;;;;;6.43;1.77;;;17.40;58.60;;;;;;5038136;28;20067;-62
2022/05/08 12:06:15;;;;;;;7.20;1.92;;;17.30;58.00;;;;;;5036674;28;20503;-64
2022/05/08 12:08:41;;;;;;;7.03;1.80;;;17.40;57.40;;;;;;5044610;28;20152;-63
2022/05/08 12:11:07;;;;;;;7.15;1.75;;;17.50;58.00;;;;;;5037735;28;20095;-63
2022/05/08 12:13:58;;;;;;;7.13;1.90;;;17.60;59.10;;;;;;5048036;28;20045;-63
2022/05/08 12:16:24;;;;;;;9.32;2.28;;;17.80;61.10;;;;;;5035113;28;20057;-64
2022/05/08 12:19:09;;;;;;;8.35;1.95;;;17.90;59.90;;;;;;5034708;28;21944;-63
2022/05/08 12:21:35;;;;;;;8.48;2.20;;;17.90;60.30;;;;;;5038022;28;20156;-65
2022/05/08 12:24:07;;;;;;;7.28;1.92;;;17.90;58.40;;;;;;5045630;28;20124;-65
2022/05/08 12:26:33;;;;;;;6.78;1.65;;;17.90;57.80;;;;;;5046015;28;20055;-62
2022/05/08 12:28:58;;;;;;;9.35;1.90;;;17.80;56.40;;;;;;5044459;28;20037;-62
2022/05/08 12:31:24;;;;;;;7.38;1.88;;;17.90;57.40;;;;;;5039086;28;20048;-63
2022/05/08 12:33:49;;;;;;;5.93;1.83;;;17.90;57.20;;;;;;5036930;28;20131;-62
2022/05/08 12:36:15;;;;;;;6.18;1.65;;;18.00;58.10;;;;;;5033257;28;20045;-64
2022/05/08 12:38:40;;;;;;;9.07;2.05;;;18.10;58.30;;;;;;5036351;28;20068;-64
2022/05/08 12:41:06;;;;;;;9.00;2.00;;;18.00;57.50;;;;;;5040914;28;20171;-61
2022/05/08 12:43:31;;;;;;;8.27;1.70;;;18.20;58.60;;;;;;5040188;28;20041;-60
2022/05/08 12:45:57;;;;;;;8.88;1.67;;;18.30;59.10;;;;;;5046746;28;20459;-61
2022/05/08 12:48:23;;;;;;;6.75;1.90;;;18.40;58.10;;;;;;5043610;28;20044;-61
2022/05/08 12:50:50;;;;;;;7.03;2.00;;;18.50;57.50;;;;;;5040162;28;20048;-61
2022/05/08 12:53:16;;;;;;;8.70;2.17;;;18.40;56.20;;;;;;5042661;28;20049;-63
2022/05/08 12:55:42;;;;;;;10.15;1.98;;;18.40;56.20;;;;;;5045814;28;20041;-60
2022/05/08 13:00:52;;;;;;;10.70;2.08;;;18.20;54.60;;;;;;5043441;28;20053;-61
2022/05/08 13:03:18;;;;;;;6.57;1.63;;;18.30;55.50;;;;;;5041369;28;20414;-61
2022/05/08 13:05:54;;;;;;;8.07;1.90;;;18.30;55.30;;;;;;5039096;28;20623;-64
2022/05/08 13:08:19;;;;;;;7.35;1.98;;;18.40;55.60;;;;;;5041950;28;20163;-61
2022/05/08 13:10:45;;;;;;;6.50;1.98;;;18.50;56.00;;;;;;5037784;28;20041;-63
2022/05/08 13:13:10;;;;;;;6.15;1.80;;;18.60;56.20;;;;;;5037330;28;20128;-61
2022/05/08 13:15:36;;;;;;;7.78;1.80;;;18.70;55.10;;;;;;5040745;28;20048;-61
2022/05/08 13:18:02;;;;;;;7.80;1.83;;;18.80;53.20;;;;;;5045683;28;20076;-62
2022/05/08 13:20:27;;;;;;;10.35;2.15;;;18.70;51.90;;;;;;5042126;28;20049;-63
2022/05/08 13:22:53;;;;;;;8.10;1.95;;;18.70;53.10;;;;;;5038725;28;20033;-61